createdAt,value
2023-03-08T00:01:56.156Z,7.07
2023-03-08T00:07:09.244Z,4.35
2023-03-08T00:12:13.111Z,4.53
2023-03-08T00:17:18.425Z,4.90
2023-03-08T00:22:21.177Z,4.65
2023-03-08T00:27:24.699Z,5.43
2023-03-08T00:32:30.197Z,4.70
2023-03-08T00:37:35.531Z,3.40
2023-03-08T00:42:38.587Z,4.30
2023-03-08T00:47:43.074Z,5.72
2023-03-08T00:52:45.713Z,4.88
2023-03-08T00:57:48.727Z,3.95
2023-03-08T01:02:52.857Z,4.95
2023-03-08T01:07:56.620Z,5.82
2023-03-08T01:12:59.704Z,3.53
2023-03-08T01:18:04.017Z,4.47
2023-03-08T01:28:10.439Z,5.50
2023-03-08T01:33:15.080Z,4.97
2023-03-08T01:38:21.639Z,3.00
2023-03-08T01:43:25.597Z,4.88
2023-03-08T01:48:32.953Z,5.20
2023-03-08T01:53:36.765Z,4.70
2023-03-08T01:58:40.360Z,4.32
2023-03-08T02:03:48.654Z,4.53
2023-03-08T02:08:53.054Z,2.30
2023-03-08T02:13:58.818Z,3.57
2023-03-08T02:19:07.402Z,5.30
2023-03-08T02:24:20.754Z,4.03
2023-03-08T02:34:29.188Z,3.20
2023-03-08T02:39:35.360Z,3.03
2023-03-08T02:44:41.706Z,5.77
2023-03-08T02:49:45.148Z,3.77
2023-03-08T02:54:49.152Z,5.57
2023-03-08T02:59:51.861Z,4.22
2023-03-08T03:04:54.945Z,4.37
2023-03-08T03:09:58.927Z,5.47
2023-03-08T03:15:03.002Z,3.87
2023-03-08T03:20:17.002Z,3.70
2023-03-08T03:25:21.291Z,4.95
2023-03-08T03:30:25.079Z,4.33
2023-03-08T03:35:35.973Z,3.43
2023-03-08T03:40:48.457Z,3.13
2023-03-08T03:45:57.632Z,4.82
2023-03-08T03:51:02.004Z,4.53
2023-03-08T03:56:07.149Z,3.67
2023-03-08T04:01:10.244Z,3.97
2023-03-08T04:06:15.424Z,5.18
2023-03-08T04:11:22.511Z,3.23
2023-03-08T04:16:29.262Z,3.80
2023-03-08T04:21:33.171Z,4.53
2023-03-08T04:26:47.542Z,4.47
2023-03-08T04:32:00.437Z,3.67
2023-03-08T04:37:03.605Z,3.63
2023-03-08T04:42:08.623Z,4.85
2023-03-08T04:47:12.452Z,5.13
2023-03-08T04:52:15.010Z,5.15
2023-03-08T04:57:20.865Z,2.43
2023-03-08T05:02:23.832Z,5.43
2023-03-08T05:07:26.585Z,4.43
2023-03-08T05:12:30.819Z,4.05
2023-03-08T05:22:48.193Z,3.03
2023-03-08T05:28:09.933Z,3.93
2023-03-08T05:33:12.656Z,5.40
2023-03-08T05:38:15.957Z,5.07
2023-03-08T05:43:20.346Z,6.10
2023-03-08T05:48:22.834Z,3.00
2023-03-08T05:53:29.477Z,5.72
2023-03-08T05:58:33.480Z,5.07
2023-03-08T06:03:36.972Z,5.00
2023-03-08T06:08:39.745Z,6.25
2023-03-08T06:13:44.713Z,4.43
2023-03-08T06:18:47.509Z,4.82
2023-03-08T06:23:51.859Z,11.15
2023-03-08T06:28:56.237Z,6.57
2023-03-08T06:33:58.932Z,6.03
2023-03-08T06:39:02.205Z,3.92
2023-03-08T06:44:07.137Z,4.88
2023-03-08T06:49:10.488Z,8.93
2023-03-08T06:54:17.400Z,7.00
2023-03-08T06:59:22.143Z,6.95
2023-03-08T07:09:27.501Z,5.28
2023-03-08T07:14:32.065Z,9.07
2023-03-08T07:19:34.604Z,5.72
2023-03-08T07:24:37.640Z,7.43
2023-03-08T07:29:41.710Z,5.07
2023-03-08T07:34:44.911Z,5.25
2023-03-08T07:39:47.517Z,6.10
2023-03-08T07:44:52.095Z,5.97
2023-03-08T07:49:55.877Z,6.85
2023-03-08T07:54:58.984Z,5.75
2023-03-08T08:00:08.290Z,3.47
2023-03-08T08:05:11.919Z,4.45
2023-03-08T08:10:14.919Z,4.32
2023-03-08T08:15:19.715Z,6.13
2023-03-08T08:20:25.162Z,7.20
2023-03-08T08:30:31.750Z,8.48
2023-03-08T08:35:43.207Z,4.07
2023-03-08T08:40:46.655Z,4.22
2023-03-08T08:45:54.892Z,6.63
2023-03-08T08:50:59.205Z,4.97
2023-03-08T08:56:20.319Z,4.47
2023-03-08T09:01:31.409Z,3.70
2023-03-08T09:06:34.238Z,5.00
2023-03-08T09:11:48.490Z,4.10
2023-03-08T09:17:01.037Z,9.25
2023-03-08T09:22:04.569Z,8.27
2023-03-08T09:27:08.038Z,5.60
2023-03-08T09:32:12.311Z,8.48
2023-03-08T09:37:15.398Z,5.55
2023-03-08T09:42:20.649Z,8.25
2023-03-08T09:47:31.080Z,5.20
2023-03-08T09:52:38.324Z,7.93
2023-03-08T09:57:45.000Z,4.95
2023-03-08T10:02:53.413Z,4.30
2023-03-08T10:07:58.738Z,10.82
2023-03-08T10:13:06.472Z,7.88
2023-03-08T10:18:14.972Z,6.55
2023-03-08T10:23:18.979Z,5.43
2023-03-08T10:28:22.512Z,3.88
2023-03-08T10:33:31.355Z,3.03
2023-03-08T10:38:35.423Z,5.85
2023-03-08T10:43:41.036Z,7.28
2023-03-08T10:48:45.595Z,4.88
2023-03-08T10:53:54.518Z,8.38
2023-03-08T10:58:58.513Z,7.03
2023-03-08T11:04:06.757Z,4.27
2023-03-08T11:09:20.744Z,3.72
2023-03-08T11:14:24.474Z,7.63
2023-03-08T11:19:44.995Z,6.27
2023-03-08T11:24:58.456Z,6.35
2023-03-08T11:35:10.532Z,4.35
2023-03-08T11:40:26.301Z,3.30
2023-03-08T11:45:35.276Z,4.18
2023-03-08T11:50:40.688Z,4.63
2023-03-08T11:55:50.901Z,5.55
2023-03-08T12:00:56.097Z,3.70
2023-03-08T12:06:04.054Z,4.13
2023-03-08T12:11:11.502Z,3.78
2023-03-08T12:16:17.447Z,5.13
2023-03-08T12:21:25.952Z,5.18
2023-03-08T12:26:32.824Z,3.53
2023-03-08T12:31:38.835Z,4.47
2023-03-08T12:36:42.902Z,6.30
2023-03-08T12:47:02.286Z,3.95
2023-03-08T12:52:07.801Z,2.67
2023-03-08T12:57:17.085Z,2.65
2023-03-08T13:02:25.448Z,2.05
2023-03-08T13:07:29.731Z,2.60
2023-03-08T13:12:39.580Z,2.17
2023-03-08T13:17:49.955Z,1.23
2023-03-08T13:23:01.117Z,1.38
2023-03-08T13:28:05.633Z,1.00
2023-03-08T13:33:13.384Z,0.80
2023-03-08T13:38:22.009Z,0.75
2023-03-08T13:43:25.678Z,0.93
2023-03-08T13:48:31.216Z,1.40
2023-03-08T13:53:35.386Z,0.70
2023-03-08T13:58:39.537Z,1.02
2023-03-08T14:03:44.321Z,0.88
2023-03-08T14:08:48.138Z,0.73
2023-03-08T14:13:53.351Z,1.00
2023-03-08T14:18:58.170Z,0.52
2023-03-08T14:24:02.141Z,0.85
2023-03-08T14:29:13.660Z,1.00
2023-03-08T14:34:20.952Z,0.73
2023-03-08T14:39:24.613Z,0.95
2023-03-08T14:44:29.325Z,0.73
2023-03-08T14:49:33.639Z,1.05
2023-03-08T14:54:37.033Z,0.90
2023-03-08T14:59:41.259Z,0.70
2023-03-08T15:04:46.500Z,0.85
2023-03-08T15:09:50.023Z,0.85
2023-03-08T15:14:53.393Z,1.10
2023-03-08T15:19:57.855Z,0.60
2023-03-08T15:25:00.447Z,1.00
2023-03-08T15:30:03.589Z,0.83
2023-03-08T15:35:08.411Z,0.80
2023-03-08T15:40:22.242Z,0.90
2023-03-08T15:45:29.398Z,0.77
2023-03-08T15:50:34.508Z,0.67
2023-03-08T15:55:39.057Z,1.02
2023-03-08T16:00:41.828Z,1.45
2023-03-08T16:05:46.182Z,0.83
2023-03-08T16:10:49.446Z,1.10
2023-03-08T16:20:57.478Z,1.50
2023-03-08T16:26:14.281Z,0.93
2023-03-08T16:31:21.433Z,1.20
2023-03-08T16:36:25.812Z,0.88
2023-03-08T16:41:30.051Z,1.25
2023-03-08T16:46:33.348Z,1.02
2023-03-08T16:51:38.739Z,1.17
2023-03-08T16:56:41.619Z,1.15
2023-03-08T17:01:44.850Z,1.83
2023-03-08T17:06:49.161Z,1.27
2023-03-08T17:11:52.034Z,1.45
2023-03-08T17:16:54.607Z,1.50
2023-03-08T17:21:58.668Z,1.23
2023-03-08T17:27:02.930Z,1.13
2023-03-08T17:32:05.774Z,1.52
2023-03-08T17:37:12.648Z,1.23
2023-03-08T17:42:15.296Z,1.00
2023-03-08T17:47:17.863Z,1.80
2023-03-08T17:52:21.974Z,1.33
2023-03-08T18:02:27.300Z,0.88
2023-03-08T18:07:31.309Z,1.33
2023-03-08T18:12:34.247Z,0.90
2023-03-08T18:17:40.268Z,1.08
2023-03-08T18:22:47.005Z,0.80
2023-03-08T18:27:49.965Z,1.23
2023-03-08T18:32:53.322Z,0.90
2023-03-08T18:37:57.470Z,0.93
2023-03-08T18:43:00.832Z,1.00
2023-03-08T18:48:04.206Z,1.15
2023-03-08T18:53:08.777Z,0.60
2023-03-08T18:58:11.551Z,0.80
2023-03-08T19:03:14.193Z,1.10
2023-03-08T19:08:18.212Z,1.02
2023-03-08T19:13:21.015Z,0.60
2023-03-08T19:18:24.817Z,0.80
2023-03-08T19:23:29.159Z,0.70
2023-03-08T19:28:32.064Z,1.00
2023-03-08T19:33:34.970Z,0.73
2023-03-08T19:38:38.925Z,0.38
2023-03-08T19:43:41.669Z,0.80
2023-03-08T19:48:45.017Z,0.40
2023-03-08T19:53:49.385Z,0.47
2023-03-08T19:58:57.087Z,0.40
2023-03-08T20:04:01.524Z,0.50
2023-03-08T20:09:07.303Z,0.68
2023-03-08T20:14:11.007Z,1.20
2023-03-08T20:19:14.494Z,1.00
2023-03-08T20:24:19.377Z,1.88
2023-03-08T20:29:22.344Z,0.82
2023-03-08T20:34:35.454Z,1.80
2023-03-08T20:39:39.742Z,0.88
2023-03-08T20:44:43.279Z,1.30
2023-03-08T20:49:48.504Z,1.00
2023-03-08T20:54:53.319Z,1.00
2023-03-08T20:59:56.379Z,1.60
2023-03-08T21:04:59.122Z,2.47
2023-03-08T21:10:03.629Z,1.20
2023-03-08T21:15:07.864Z,1.30
2023-03-08T21:20:12.616Z,0.98
2023-03-08T21:25:16.909Z,1.50
2023-03-08T21:30:21.331Z,1.33
2023-03-08T21:40:28.667Z,1.75
2023-03-08T21:45:31.683Z,2.33
2023-03-08T21:50:34.346Z,1.60
2023-03-08T21:55:41.465Z,0.40
2023-03-08T22:00:44.031Z,0.68
2023-03-08T22:05:51.159Z,1.03
2023-03-08T22:10:58.155Z,0.60
2023-03-08T22:16:02.976Z,1.33
2023-03-08T22:21:07.043Z,0.77
2023-03-08T22:26:24.418Z,0.93
2023-03-08T22:31:36.300Z,0.95
2023-03-08T22:36:49.596Z,1.48
2023-03-08T22:41:56.461Z,0.88
2023-03-08T22:47:00.363Z,0.40
2023-03-08T22:52:04.777Z,0.82
2023-03-08T22:57:08.774Z,0.80
2023-03-08T23:02:12.549Z,0.52
2023-03-08T23:07:18.286Z,0.93
2023-03-08T23:12:23.750Z,0.55
2023-03-08T23:17:28.981Z,0.40
2023-03-08T23:22:32.436Z,0.57
2023-03-08T23:27:37.394Z,0.30
2023-03-08T23:37:47.003Z,0.90
2023-03-08T23:42:52.141Z,0.90
2023-03-08T23:47:55.824Z,0.75
2023-03-08T23:52:59.224Z,0.50
2023-03-08T23:58:04.067Z,0.68
